createdAt,value
2022-12-04T00:01:23.273Z,101027.91
2022-12-04T00:03:58.285Z,101029.59
2022-12-04T00:06:26.147Z,101026.44
2022-12-04T00:08:53.433Z,101016.22
2022-12-04T00:11:23.840Z,101025.81
2022-12-04T00:13:51.324Z,101029.59
2022-12-04T00:16:21.161Z,101014.44
2022-12-04T00:18:48.141Z,101023.19
2022-12-04T00:21:16.292Z,101021.69
2022-12-04T00:23:44.652Z,101011.81
2022-12-04T00:26:17.939Z,101019.28
2022-12-04T00:28:44.997Z,101012.34
2022-12-04T00:31:15.556Z,101015.41
2022-12-04T00:33:42.809Z,101018.03
2022-12-04T00:36:12.250Z,101024.56
2022-12-04T00:38:40.166Z,101023.69
2022-12-04T00:41:14.825Z,101024.56
2022-12-04T00:43:42.081Z,101029.66
2022-12-04T00:46:09.576Z,101024.00
2022-12-04T00:48:36.584Z,101016.22
2022-12-04T00:51:08.958Z,101011.91
2022-12-04T00:53:36.146Z,101017.16
2022-12-04T00:56:09.433Z,101025.38
2022-12-04T00:58:36.709Z,101028.28
2022-12-04T01:01:13.329Z,101026.00
2022-12-04T01:03:40.708Z,101015.25
2022-12-04T01:06:08.217Z,101023.25
2022-12-04T01:08:35.012Z,101026.81
2022-12-04T01:11:06.918Z,101028.72
2022-12-04T01:13:33.733Z,101020.50
2022-12-04T01:16:00.454Z,101030.81
2022-12-04T01:18:27.397Z,101012.00
2022-12-04T01:20:54.220Z,101022.09
2022-12-04T01:23:21.345Z,101013.47
2022-12-04T01:25:57.576Z,101009.16
2022-12-04T01:28:25.491Z,101005.03
2022-12-04T01:31:02.788Z,101005.78
2022-12-04T01:33:30.600Z,101001.28
2022-12-04T01:35:58.913Z,101004.72
2022-12-04T01:38:26.884Z,100989.38
2022-12-04T01:40:54.602Z,100982.41
2022-12-04T01:43:22.348Z,100973.91
2022-12-04T01:45:52.870Z,100982.63
2022-12-04T01:48:26.596Z,100969.50
2022-12-04T01:50:59.099Z,100967.91
2022-12-04T01:53:26.759Z,100976.72
2022-12-04T01:55:53.918Z,100963.69
2022-12-04T01:58:26.964Z,100961.72
2022-12-04T02:00:58.552Z,100966.75
2022-12-04T02:03:25.925Z,100963.59
2022-12-04T02:05:52.598Z,100961.28
2022-12-04T02:08:19.453Z,100959.28
2022-12-04T02:11:03.606Z,100952.44
2022-12-04T02:13:40.983Z,100951.28
2022-12-04T02:16:24.646Z,100954.53
2022-12-04T02:19:13.121Z,100951.06
2022-12-04T02:21:45.775Z,100956.94
2022-12-04T02:24:50.034Z,100964.13
2022-12-04T02:27:39.062Z,100960.72
2022-12-04T02:30:13.437Z,100961.78
2022-12-04T02:33:03.385Z,100959.25
2022-12-04T02:35:42.806Z,100952.31
2022-12-04T02:38:23.541Z,100951.56
2022-12-04T02:40:55.660Z,100949.69
2022-12-04T02:43:46.949Z,100957.59
2022-12-04T02:46:32.817Z,100946.31
2022-12-04T02:49:03.415Z,100941.38
2022-12-04T02:51:34.663Z,100933.50
2022-12-04T02:54:19.730Z,100940.50
2022-12-04T02:56:50.465Z,100943.16
2022-12-04T02:59:23.448Z,100962.19
2022-12-04T03:01:55.484Z,100953.66
2022-12-04T03:04:26.067Z,100951.44
2022-12-04T03:06:59.612Z,100961.13
2022-12-04T03:09:44.508Z,100965.41
2022-12-04T03:12:19.869Z,100968.81
2022-12-04T03:15:01.508Z,100974.06
2022-12-04T03:17:38.775Z,100970.56
2022-12-04T03:20:11.099Z,100959.13
2022-12-04T03:22:42.360Z,100959.13
2022-12-04T03:25:09.824Z,100958.63
2022-12-04T03:28:05.292Z,100949.06
2022-12-04T03:30:39.651Z,100949.47
2022-12-04T03:33:21.609Z,100946.84
2022-12-04T03:36:08.747Z,100943.66
2022-12-04T03:38:51.757Z,100937.16
2022-12-04T03:41:48.045Z,100930.84
2022-12-04T03:44:33.833Z,100933.75
2022-12-04T03:47:30.054Z,100941.84
2022-12-04T03:50:12.722Z,100931.44
2022-12-04T03:52:45.625Z,100936.59
2022-12-04T03:55:21.434Z,100944.28
2022-12-04T03:57:50.365Z,100962.03
2022-12-04T04:00:19.471Z,100965.72
2022-12-04T04:02:55.929Z,100953.34
2022-12-04T04:05:26.848Z,100946.63
2022-12-04T04:08:18.712Z,100945.47
2022-12-04T04:10:45.791Z,100940.63
2022-12-04T04:13:34.120Z,100942.75
2022-12-04T04:16:23.505Z,100938.63
2022-12-04T04:19:10.966Z,100952.91
2022-12-04T04:21:58.825Z,100953.13
2022-12-04T04:24:36.204Z,100948.00
2022-12-04T04:27:03.737Z,100966.78
2022-12-04T04:29:30.592Z,100972.66
2022-12-04T04:32:11.300Z,100960.66
2022-12-04T04:34:56.305Z,100967.56
2022-12-04T04:37:41.295Z,100967.78
2022-12-04T04:40:22.164Z,100964.44
2022-12-04T04:42:57.016Z,100956.97
2022-12-04T04:45:32.226Z,100967.06
2022-12-04T04:48:06.717Z,100968.38
2022-12-04T04:50:34.956Z,100959.75
2022-12-04T04:53:05.463Z,100967.16
2022-12-04T04:55:34.924Z,100956.78
2022-12-04T04:58:13.509Z,100962.44
2022-12-04T05:00:47.355Z,100964.19
2022-12-04T05:03:14.178Z,100958.38
2022-12-04T05:05:40.903Z,100946.84
2022-12-04T05:08:07.702Z,100960.06
2022-12-04T05:10:34.488Z,100952.19
2022-12-04T05:13:01.186Z,100944.94
2022-12-04T05:15:27.876Z,100938.75
2022-12-04T05:17:54.876Z,100948.59
2022-12-04T05:20:21.554Z,100945.38
2022-12-04T05:22:48.225Z,100944.84
2022-12-04T05:25:14.918Z,100937.81
2022-12-04T05:27:41.663Z,100958.28
2022-12-04T05:30:10.449Z,100952.78
2022-12-04T05:32:37.187Z,100953.06
2022-12-04T05:35:10.577Z,100949.50
2022-12-04T05:37:40.176Z,100951.13
2022-12-04T05:40:10.162Z,100959.09
2022-12-04T05:42:36.954Z,100965.28
2022-12-04T05:45:03.841Z,100969.72
2022-12-04T05:47:30.543Z,100963.69
2022-12-04T05:49:58.235Z,100975.91
2022-12-04T05:52:25.242Z,100969.16
2022-12-04T05:54:51.864Z,100955.09
2022-12-04T05:57:18.533Z,100957.03
2022-12-04T05:59:45.207Z,100958.34
2022-12-04T06:02:11.941Z,100964.38
2022-12-04T06:04:38.690Z,100965.69
2022-12-04T06:07:05.404Z,100962.50
2022-12-04T06:09:32.031Z,100958.28
2022-12-04T06:11:59.085Z,100951.06
2022-12-04T06:14:25.911Z,100950.13
2022-12-04T06:16:52.693Z,100949.09
2022-12-04T06:19:21.489Z,100958.09
2022-12-04T06:21:51.393Z,100953.34
2022-12-04T06:24:22.005Z,100954.38
2022-12-04T06:27:18.677Z,100960.81
2022-12-04T06:29:36.269Z,100951.44
2022-12-04T06:32:03.180Z,100949.84
2022-12-04T06:34:29.948Z,100950.06
2022-12-04T06:36:56.702Z,100960.56
2022-12-04T06:39:23.456Z,100948.47
2022-12-04T06:41:50.200Z,100951.00
2022-12-04T06:44:16.874Z,100949.53
2022-12-04T06:46:47.151Z,100941.38
2022-12-04T06:49:14.389Z,100936.66
2022-12-04T06:51:41.174Z,100937.44
2022-12-04T06:54:09.475Z,100946.63
2022-12-04T06:56:36.334Z,100956.94
2022-12-04T06:59:04.430Z,100956.16
2022-12-04T07:01:33.938Z,100958.63
2022-12-04T07:04:03.884Z,100955.78
2022-12-04T07:06:36.561Z,100956.72
2022-12-04T07:09:16.944Z,100957.56
2022-12-04T07:11:44.706Z,100956.00
2022-12-04T07:14:13.206Z,100956.72
2022-12-04T07:16:42.248Z,100964.50
2022-12-04T07:19:11.096Z,100963.28
2022-12-04T07:21:37.921Z,100996.09
2022-12-04T07:24:05.115Z,100990.09
2022-12-04T07:26:31.913Z,100987.84
2022-12-04T07:28:59.462Z,100988.50
2022-12-04T07:31:27.899Z,100993.00
2022-12-04T07:33:55.231Z,101000.28
2022-12-04T07:36:23.137Z,100982.22
2022-12-04T07:38:50.840Z,100986.53
2022-12-04T07:41:18.913Z,100985.59
2022-12-04T07:43:46.047Z,100977.75
2022-12-04T07:46:17.784Z,100976.31
2022-12-04T07:48:45.068Z,100970.78
2022-12-04T07:51:14.913Z,100975.66
2022-12-04T07:53:42.134Z,100972.28
2022-12-04T07:56:11.070Z,100972.88
2022-12-04T07:58:38.300Z,100964.59
2022-12-04T08:01:17.468Z,100968.91
2022-12-04T08:03:48.325Z,100968.91
2022-12-04T08:06:18.145Z,100968.06
2022-12-04T08:08:45.299Z,100957.94
2022-12-04T08:11:15.308Z,100976.69
2022-12-04T08:13:42.234Z,100977.81
2022-12-04T08:16:10.310Z,100974.25
2022-12-04T08:18:37.458Z,100977.81
2022-12-04T08:21:11.584Z,100987.47
2022-12-04T08:23:40.525Z,100985.69
2022-12-04T08:26:07.980Z,100988.13
2022-12-04T08:28:35.164Z,100983.03
2022-12-04T08:31:03.899Z,100968.69
2022-12-04T08:33:30.745Z,100977.78
2022-12-04T08:35:57.647Z,100975.56
2022-12-04T08:38:24.432Z,100984.47
2022-12-04T08:40:51.226Z,100983.34
2022-12-04T08:43:18.094Z,100988.22
2022-12-04T08:45:44.890Z,100995.41
2022-12-04T08:48:11.546Z,100988.50
2022-12-04T08:50:44.820Z,100997.03
2022-12-04T08:53:11.513Z,100998.72
2022-12-04T08:55:38.135Z,100995.25
2022-12-04T08:58:04.826Z,101002.56
2022-12-04T09:00:31.790Z,101001.44
2022-12-04T09:02:58.539Z,100991.88
2022-12-04T09:05:25.221Z,100998.53
2022-12-04T09:07:52.012Z,100991.41
2022-12-04T09:10:18.878Z,100992.25
2022-12-04T09:12:45.546Z,100992.53
2022-12-04T09:15:12.597Z,100987.66
2022-12-04T09:17:39.402Z,100992.03
2022-12-04T09:20:08.158Z,100997.97
2022-12-04T09:23:01.757Z,100991.13
2022-12-04T09:25:22.940Z,100994.09
2022-12-04T09:27:49.691Z,101001.94
2022-12-04T09:30:16.380Z,100997.56
2022-12-04T09:32:43.077Z,100978.31
2022-12-04T09:35:10.026Z,100980.22
2022-12-04T09:37:36.844Z,100991.84
2022-12-04T09:40:07.556Z,100981.63
2022-12-04T09:42:43.644Z,100985.84
2022-12-04T09:45:25.375Z,100985.94
2022-12-04T09:48:01.455Z,100979.75
2022-12-04T09:50:45.322Z,100985.47
2022-12-04T09:53:16.048Z,100984.59
2022-12-04T09:55:47.499Z,100972.25
2022-12-04T09:58:21.282Z,100979.56
2022-12-04T10:00:51.312Z,100967.47
2022-12-04T10:03:21.165Z,100960.63
2022-12-04T10:06:16.382Z,100976.94
2022-12-04T10:08:46.663Z,100977.50
2022-12-04T10:11:40.441Z,100977.03
2022-12-04T10:14:26.125Z,100976.66
2022-12-04T10:17:27.844Z,100964.25
2022-12-04T10:20:13.856Z,100956.59
2022-12-04T10:23:13.418Z,100954.22
2022-12-04T10:25:42.174Z,100954.78
2022-12-04T10:28:26.427Z,100957.97
2022-12-04T10:30:55.670Z,100954.13
2022-12-04T10:33:45.736Z,100944.25
2022-12-04T10:36:14.110Z,100926.63
2022-12-04T10:39:04.100Z,100924.91
2022-12-04T10:41:33.491Z,100926.50
2022-12-04T10:44:00.160Z,100911.78
2022-12-04T10:46:29.292Z,100917.91
2022-12-04T10:48:59.913Z,100920.59
2022-12-04T10:51:26.773Z,100904.06
2022-12-04T10:53:55.738Z,100911.19
2022-12-04T10:56:24.969Z,100909.84
2022-12-04T10:59:01.835Z,100910.59
2022-12-04T11:01:33.960Z,100898.22
2022-12-04T11:04:09.342Z,100896.16
2022-12-04T11:06:36.245Z,100898.19
2022-12-04T11:09:03.753Z,100900.69
2022-12-04T11:11:35.698Z,100908.03
2022-12-04T11:14:06.961Z,100909.81
2022-12-04T11:16:40.477Z,100893.66
2022-12-04T11:19:22.377Z,100895.03
2022-12-04T11:21:50.192Z,100904.16
2022-12-04T11:24:29.396Z,100909.03
2022-12-04T11:26:57.831Z,100910.78
2022-12-04T11:29:42.183Z,100893.16
2022-12-04T11:32:19.810Z,100893.38
2022-12-04T11:34:46.719Z,100878.13
2022-12-04T11:37:45.125Z,100881.41
2022-12-04T11:40:18.871Z,100875.59
2022-12-04T11:42:58.603Z,100875.09
2022-12-04T11:45:25.253Z,100874.91
2022-12-04T11:47:57.328Z,100873.75
2022-12-04T11:50:54.699Z,100895.16
2022-12-04T11:53:39.692Z,100896.41
2022-12-04T11:56:19.931Z,100902.63
2022-12-04T11:58:51.706Z,100903.25
2022-12-04T12:01:27.228Z,100906.75
2022-12-04T12:04:10.751Z,100907.34
2022-12-04T12:06:58.955Z,100906.81
2022-12-04T12:09:55.739Z,100911.34
2022-12-04T12:12:38.205Z,100903.78
2022-12-04T12:15:26.465Z,100898.88
2022-12-04T12:18:08.711Z,100893.38
2022-12-04T12:20:50.408Z,100897.06
2022-12-04T12:23:31.040Z,100897.41
2022-12-04T12:26:16.349Z,100904.97
2022-12-04T12:28:49.258Z,100903.59
2022-12-04T12:31:42.172Z,100899.72
2022-12-04T12:34:14.489Z,100895.69
2022-12-04T12:36:45.622Z,100888.03
2022-12-04T12:39:29.552Z,100879.41
2022-12-04T12:42:01.194Z,100878.66
2022-12-04T12:44:43.149Z,100883.94
2022-12-04T12:47:17.764Z,100877.72
2022-12-04T12:50:10.593Z,100877.91
2022-12-04T12:52:58.875Z,100885.63
2022-12-04T12:55:39.838Z,100882.44
2022-12-04T12:58:24.907Z,100870.91
2022-12-04T13:01:16.531Z,100876.16
2022-12-04T13:03:49.076Z,100885.63
2022-12-04T13:06:25.101Z,100889.06
2022-12-04T13:09:25.546Z,100891.50
2022-12-04T13:11:58.715Z,100895.69
2022-12-04T13:14:25.844Z,100899.25
2022-12-04T13:16:59.738Z,100908.13
2022-12-04T13:19:34.695Z,100908.22
2022-12-04T13:22:10.661Z,100907.25
2022-12-04T13:24:56.529Z,100917.03
2022-12-04T13:27:37.975Z,100897.78
2022-12-04T13:30:21.605Z,100900.97
2022-12-04T13:32:48.356Z,100894.00
2022-12-04T13:35:39.966Z,100892.25
2022-12-04T13:38:15.659Z,100893.06
2022-12-04T13:40:51.728Z,100884.97
2022-12-04T13:43:24.556Z,100881.09
2022-12-04T13:45:54.266Z,100883.84
2022-12-04T13:48:36.991Z,100887.84
2022-12-04T13:51:14.324Z,100888.81
2022-12-04T13:53:43.508Z,100891.94
2022-12-04T13:56:26.404Z,100888.81
2022-12-04T13:59:25.424Z,100894.69
2022-12-04T14:01:57.483Z,100891.31
2022-12-04T14:04:25.651Z,100896.59
2022-12-04T14:06:54.332Z,100892.97
2022-12-04T14:09:53.480Z,100889.41
2022-12-04T14:12:26.964Z,100888.28
2022-12-04T14:15:00.574Z,100892.38
2022-12-04T14:17:30.887Z,100890.28
2022-12-04T14:20:07.318Z,100895.66
2022-12-04T14:22:37.501Z,100905.31
2022-12-04T14:25:29.146Z,100900.16
2022-12-04T14:27:55.997Z,100898.38
2022-12-04T14:30:31.370Z,100900.16
2022-12-04T14:33:19.008Z,100895.00
2022-12-04T14:36:02.778Z,100890.56
2022-12-04T14:38:29.748Z,100889.63
2022-12-04T14:40:58.193Z,100906.34
2022-12-04T14:43:28.313Z,100903.72
2022-12-04T14:46:10.252Z,100896.69
2022-12-04T14:48:58.281Z,100892.38
2022-12-04T14:51:35.675Z,100887.94
2022-12-04T14:54:17.721Z,100896.59
2022-12-04T14:57:14.171Z,100898.28
2022-12-04T14:59:53.599Z,100883.66
2022-12-04T15:02:34.727Z,100889.63
2022-12-04T15:05:02.727Z,100895.00
2022-12-04T15:07:31.804Z,100891.44
2022-12-04T15:10:19.428Z,100895.75
2022-12-04T15:12:52.979Z,100892.16
2022-12-04T15:15:26.101Z,100891.13
2022-12-04T15:18:17.114Z,100896.47
2022-12-04T15:20:43.833Z,100897.22
2022-12-04T15:23:16.563Z,100886.78
2022-12-04T15:25:51.708Z,100886.50
2022-12-04T15:28:24.125Z,100889.13
2022-12-04T15:30:52.732Z,100894.38
2022-12-04T15:33:34.376Z,100897.13
2022-12-04T15:36:05.586Z,100895.13
2022-12-04T15:38:32.692Z,100894.91
2022-12-04T15:41:00.834Z,100893.63
2022-12-04T15:43:29.443Z,100893.63
2022-12-04T15:45:57.123Z,100891.97
2022-12-04T15:48:29.685Z,100893.03
2022-12-04T15:51:03.639Z,100885.13
2022-12-04T15:53:37.570Z,100893.84
2022-12-04T15:56:08.524Z,100899.13
2022-12-04T15:58:40.425Z,100898.19
2022-12-04T16:01:10.701Z,100901.63
2022-12-04T16:03:47.078Z,100891.13
2022-12-04T16:06:24.172Z,100892.81
2022-12-04T16:08:58.075Z,100887.53
2022-12-04T16:11:30.766Z,100880.91
2022-12-04T16:14:23.878Z,100883.31
2022-12-04T16:16:52.850Z,100884.50
2022-12-04T16:19:33.378Z,100888.81
2022-12-04T16:22:03.602Z,100893.13
2022-12-04T16:24:30.734Z,100895.03
2022-12-04T16:27:00.245Z,100904.78
2022-12-04T16:29:27.165Z,100913.44
2022-12-04T16:31:57.170Z,100911.63
2022-12-04T16:34:27.991Z,100909.13
2022-12-04T16:36:54.627Z,100910.69
2022-12-04T16:39:21.460Z,100909.63
2022-12-04T16:41:48.209Z,100908.38
2022-12-04T16:44:16.432Z,100896.41
2022-12-04T16:46:43.648Z,100902.28
2022-12-04T16:49:13.852Z,100892.81
2022-12-04T16:51:49.643Z,100898.91
2022-12-04T16:54:16.620Z,100901.44
2022-12-04T16:56:46.438Z,100909.22
2022-12-04T16:59:13.274Z,100908.38
2022-12-04T17:01:46.545Z,100910.06
2022-12-04T17:04:13.580Z,100911.03
2022-12-04T17:06:40.653Z,100909.13
2022-12-04T17:09:08.123Z,100907.41
2022-12-04T17:11:34.806Z,100915.19
2022-12-04T17:14:06.891Z,100907.63
2022-12-04T17:16:38.483Z,100922.16
2022-12-04T17:19:05.324Z,100919.53
2022-12-04T17:21:32.098Z,100925.53
2022-12-04T17:23:58.813Z,100930.78
2022-12-04T17:26:26.305Z,100927.94
2022-12-04T17:28:53.235Z,100925.31
2022-12-04T17:31:22.789Z,100936.78
2022-12-04T17:33:50.213Z,100932.44
2022-12-04T17:36:25.845Z,100926.47
2022-12-04T17:38:57.514Z,100924.56
2022-12-04T17:41:24.256Z,100929.72
2022-12-04T17:43:51.089Z,100926.38
2022-12-04T17:46:21.861Z,100921.09
2022-12-04T17:48:48.817Z,100925.53
2022-12-04T17:51:22.816Z,100917.66
2022-12-04T17:53:49.745Z,100920.16
2022-12-04T17:56:19.285Z,100912.38
2022-12-04T17:58:46.870Z,100921.09
2022-12-04T18:01:16.904Z,100925.44
2022-12-04T18:03:44.421Z,100922.69
2022-12-04T18:06:17.128Z,100921.75
2022-12-04T18:08:49.846Z,100932.28
2022-12-04T18:11:20.522Z,100936.56
2022-12-04T18:13:49.445Z,100936.78
2022-12-04T18:16:16.266Z,100927.94
2022-12-04T18:18:46.611Z,100938.47
2022-12-04T18:21:14.524Z,100941.94
2022-12-04T18:23:45.664Z,100937.53
2022-12-04T18:26:14.353Z,100941.09
2022-12-04T18:28:42.057Z,100940.25
2022-12-04T18:31:09.869Z,100939.41
2022-12-04T18:33:39.120Z,100935.09
2022-12-04T18:36:06.804Z,100945.72
2022-12-04T18:38:33.645Z,100943.84
2022-12-04T18:41:05.908Z,100938.69
2022-12-04T18:43:37.916Z,100944.66
2022-12-04T18:46:08.044Z,100936.06
2022-12-04T18:48:36.022Z,100941.09
2022-12-04T18:51:14.536Z,100936.78
2022-12-04T18:53:41.441Z,100943.63
2022-12-04T18:56:08.091Z,100943.72
2022-12-04T18:58:34.799Z,100946.34
2022-12-04T19:01:09.480Z,100937.59
2022-12-04T19:03:37.034Z,100953.31
2022-12-04T19:06:04.783Z,100968.00
2022-12-04T19:08:34.297Z,100964.78
2022-12-04T19:11:21.533Z,100957.81
2022-12-04T19:13:48.259Z,100970.88
2022-12-04T19:16:17.505Z,100966.53
2022-12-04T19:18:47.705Z,100972.78
2022-12-04T19:21:14.912Z,100966.66
2022-12-04T19:23:42.759Z,100978.84
2022-12-04T19:26:09.527Z,100960.56
2022-12-04T19:28:36.523Z,100956.22
2022-12-04T19:31:03.643Z,100974.53
2022-12-04T19:33:30.455Z,100978.22
2022-12-04T19:36:03.216Z,100979.91
2022-12-04T19:38:31.447Z,100974.66
2022-12-04T19:41:22.953Z,100985.16
2022-12-04T19:43:52.871Z,100981.91
2022-12-04T19:46:26.230Z,100987.91
2022-12-04T19:48:58.724Z,100986.22
2022-12-04T19:51:26.035Z,100981.72
2022-12-04T19:53:54.200Z,100979.19
2022-12-04T19:56:24.505Z,100984.34
2022-12-04T19:58:52.615Z,100985.28
2022-12-04T20:01:24.083Z,100986.03
2022-12-04T20:03:51.340Z,100988.72
2022-12-04T20:06:20.723Z,100986.31
2022-12-04T20:08:52.799Z,100988.72
2022-12-04T20:11:19.611Z,100987.06
2022-12-04T20:13:48.547Z,100990.31
2022-12-04T20:16:18.096Z,100987.69
2022-12-04T20:18:45.310Z,100989.38
2022-12-04T20:21:12.989Z,100985.91
2022-12-04T20:23:49.943Z,100986.03
2022-12-04T20:26:26.054Z,100985.91
2022-12-04T20:28:54.827Z,100994.84
2022-12-04T20:31:41.760Z,100986.03
2022-12-04T20:34:12.106Z,100987.59
2022-12-04T20:36:41.773Z,100998.22
2022-12-04T20:39:09.754Z,101005.38
2022-12-04T20:41:36.716Z,101000.66
2022-12-04T20:44:06.413Z,100992.75
2022-12-04T20:46:38.320Z,100990.13
2022-12-04T20:49:08.571Z,100989.16
2022-12-04T20:51:37.840Z,100983.28
2022-12-04T20:54:05.662Z,100983.47
2022-12-04T20:56:37.236Z,100997.50
2022-12-04T20:59:07.652Z,101003.47
2022-12-04T21:01:35.472Z,100992.00
2022-12-04T21:04:02.821Z,100986.84
2022-12-04T21:06:38.122Z,100991.28
2022-12-04T21:09:16.787Z,100997.59
2022-12-04T21:11:49.360Z,100985.38
2022-12-04T21:14:43.878Z,100985.50
2022-12-04T21:17:16.629Z,100976.66
2022-12-04T21:19:43.594Z,100966.53
2022-12-04T21:22:10.279Z,100985.59
2022-12-04T21:24:39.224Z,100991.47
2022-12-04T21:27:09.820Z,100987.38
2022-12-04T21:29:39.677Z,100989.16
2022-12-04T21:32:07.242Z,100993.38
2022-12-04T21:34:33.979Z,100997.50
2022-12-04T21:37:00.863Z,101000.13
2022-12-04T21:39:27.564Z,101001.69
2022-12-04T21:42:26.606Z,101003.47
2022-12-04T21:44:53.311Z,101009.78
2022-12-04T21:47:20.497Z,101002.75
2022-12-04T21:49:47.780Z,101011.47
2022-12-04T21:52:18.581Z,101011.56
2022-12-04T21:54:48.325Z,101010.97
2022-12-04T21:57:15.019Z,101009.16
2022-12-04T21:59:41.677Z,101007.25
2022-12-04T22:02:10.018Z,101009.06
2022-12-04T22:04:36.711Z,101011.88
2022-12-04T22:07:03.545Z,101021.38
2022-12-04T22:09:30.283Z,101017.03
2022-12-04T22:11:56.940Z,101015.13
2022-12-04T22:14:23.588Z,101016.84
2022-12-04T22:16:51.892Z,101009.59
2022-12-04T22:19:18.669Z,101008.63
2022-12-04T22:21:45.491Z,101012.94
2022-12-04T22:24:12.264Z,101009.59
2022-12-04T22:26:39.144Z,101006.22
2022-12-04T22:29:33.725Z,101003.47
2022-12-04T22:31:52.944Z,101004.13
2022-12-04T22:34:19.676Z,101005.38
2022-12-04T22:36:48.851Z,100995.78
2022-12-04T22:39:15.506Z,100983.69
2022-12-04T22:41:42.185Z,100986.22
2022-12-04T22:44:08.982Z,100980.13
2022-12-04T22:46:35.702Z,100970.84
2022-12-04T22:49:02.400Z,100979.47
2022-12-04T22:51:29.236Z,100981.16
2022-12-04T22:53:57.956Z,100979.56
2022-12-04T22:56:30.689Z,100980.56
2022-12-04T22:58:58.296Z,100978.09
2022-12-04T23:01:27.856Z,100973.69
2022-12-04T23:03:54.828Z,100979.41
2022-12-04T23:06:23.433Z,100974.22
2022-12-04T23:08:55.923Z,100969.81
2022-12-04T23:11:23.868Z,100973.91
2022-12-04T23:13:56.012Z,100970.44
2022-12-04T23:16:24.383Z,100972.56
2022-12-04T23:18:51.409Z,100969.81
2022-12-04T23:21:20.116Z,100968.13
2022-12-04T23:23:47.679Z,100964.78
2022-12-04T23:26:17.843Z,100980.56
2022-12-04T23:28:44.531Z,100976.44
2022-12-04T23:31:11.504Z,100966.09
2022-12-04T23:33:39.365Z,100958.88
2022-12-04T23:36:07.528Z,100959.91
2022-12-04T23:38:35.750Z,100971.78
2022-12-04T23:41:05.438Z,100966.66
2022-12-04T23:43:32.691Z,100965.81
2022-12-04T23:45:59.395Z,100959.59
2022-12-04T23:48:26.901Z,100958.88
2022-12-04T23:50:54.032Z,100955.28
2022-12-04T23:53:21.158Z,100964.94
2022-12-04T23:56:09.918Z,100967.41
2022-12-04T23:58:37.530Z,100970.22
